sensor_id;sensor_type;location;lat;lon;timestamp;P1;durP1;ratioP1;P2;durP2;ratioP2
72895;SDS011;61036;53.224;6.554;2023-08-06T00:01:38;11.10;;;8.03;;
72895;SDS011;61036;53.224;6.554;2023-08-06T00:04:04;11.30;;;7.70;;
72895;SDS011;61036;53.224;6.554;2023-08-06T00:06:29;10.43;;;7.23;;
72895;SDS011;61036;53.224;6.554;2023-08-06T00:08:55;10.60;;;7.70;;
72895;SDS011;61036;53.224;6.554;2023-08-06T00:11:20;11.90;;;8.77;;
72895;SDS011;61036;53.224;6.554;2023-08-06T00:13:46;10.40;;;7.97;;
72895;SDS011;61036;53.224;6.554;2023-08-06T00:16:12;10.10;;;7.37;;
72895;SDS011;61036;53.224;6.554;2023-08-06T00:18:38;10.47;;;7.73;;
72895;SDS011;61036;53.224;6.554;2023-08-06T00:21:04;11.57;;;8.70;;
72895;SDS011;61036;53.224;6.554;2023-08-06T00:23:30;11.97;;;7.57;;
72895;SDS011;61036;53.224;6.554;2023-08-06T00:25:56;9.40;;;7.00;;
72895;SDS011;61036;53.224;6.554;2023-08-06T00:28:21;9.40;;;6.63;;
72895;SDS011;61036;53.224;6.554;2023-08-06T00:30:52;12.67;;;8.13;;
72895;SDS011;61036;53.224;6.554;2023-08-06T00:33:21;9.37;;;6.20;;
72895;SDS011;61036;53.224;6.554;2023-08-06T00:35:47;11.70;;;7.60;;
72895;SDS011;61036;53.224;6.554;2023-08-06T00:38:13;11.33;;;7.43;;
72895;SDS011;61036;53.224;6.554;2023-08-06T00:40:38;9.03;;;6.70;;
72895;SDS011;61036;53.224;6.554;2023-08-06T00:43:04;10.23;;;7.07;;
72895;SDS011;61036;53.224;6.554;2023-08-06T00:45:30;9.50;;;7.57;;
72895;SDS011;61036;53.224;6.554;2023-08-06T00:47:59;10.47;;;7.10;;
72895;SDS011;61036;53.224;6.554;2023-08-06T00:50:25;9.47;;;6.43;;
72895;SDS011;61036;53.224;6.554;2023-08-06T00:52:51;10.57;;;7.13;;
72895;SDS011;61036;53.224;6.554;2023-08-06T00:55:17;9.50;;;6.73;;
72895;SDS011;61036;53.224;6.554;2023-08-06T00:57:43;9.00;;;6.73;;
72895;SDS011;61036;53.224;6.554;2023-08-06T01:00:09;12.47;;;8.60;;
72895;SDS011;61036;53.224;6.554;2023-08-06T01:02:35;10.23;;;7.03;;
72895;SDS011;61036;53.224;6.554;2023-08-06T01:05:01;10.17;;;7.40;;
72895;SDS011;61036;53.224;6.554;2023-08-06T01:15:54;8.90;;;6.60;;
72895;SDS011;61036;53.224;6.554;2023-08-06T01:18:24;11.40;;;6.67;;
72895;SDS011;61036;53.224;6.554;2023-08-06T01:20:49;9.87;;;7.17;;
72895;SDS011;61036;53.224;6.554;2023-08-06T01:23:15;9.60;;;7.10;;
72895;SDS011;61036;53.224;6.554;2023-08-06T01:25:56;10.17;;;7.30;;
72895;SDS011;61036;53.224;6.554;2023-08-06T01:28:24;11.00;;;7.43;;
72895;SDS011;61036;53.224;6.554;2023-08-06T01:30:59;9.50;;;6.57;;
72895;SDS011;61036;53.224;6.554;2023-08-06T01:33:30;10.07;;;7.03;;
72895;SDS011;61036;53.224;6.554;2023-08-06T01:35:58;11.07;;;6.43;;
72895;SDS011;61036;53.224;6.554;2023-08-06T01:38:24;13.03;;;7.70;;
72895;SDS011;61036;53.224;6.554;2023-08-06T01:40:50;10.77;;;7.70;;
72895;SDS011;61036;53.224;6.554;2023-08-06T01:43:15;11.77;;;7.77;;
72895;SDS011;61036;53.224;6.554;2023-08-06T01:45:41;10.17;;;7.30;;
72895;SDS011;61036;53.224;6.554;2023-08-06T01:48:06;9.47;;;7.20;;
72895;SDS011;61036;53.224;6.554;2023-08-06T01:50:32;12.83;;;9.00;;
72895;SDS011;61036;53.224;6.554;2023-08-06T01:52:57;13.47;;;8.20;;
72895;SDS011;61036;53.224;6.554;2023-08-06T01:55:23;12.00;;;7.93;;
72895;SDS011;61036;53.224;6.554;2023-08-06T01:57:48;9.83;;;7.93;;
72895;SDS011;61036;53.224;6.554;2023-08-06T02:00:14;9.50;;;7.53;;
72895;SDS011;61036;53.224;6.554;2023-08-06T02:02:39;11.33;;;8.57;;
72895;SDS011;61036;53.224;6.554;2023-08-06T02:05:06;12.13;;;9.27;;
72895;SDS011;61036;53.224;6.554;2023-08-06T02:07:32;13.33;;;9.43;;
72895;SDS011;61036;53.224;6.554;2023-08-06T02:09:57;12.40;;;8.20;;
72895;SDS011;61036;53.224;6.554;2023-08-06T02:12:23;13.77;;;8.40;;
72895;SDS011;61036;53.224;6.554;2023-08-06T02:14:49;12.33;;;9.07;;
72895;SDS011;61036;53.224;6.554;2023-08-06T02:17:14;14.23;;;10.30;;
72895;SDS011;61036;53.224;6.554;2023-08-06T02:19:40;11.87;;;8.87;;
72895;SDS011;61036;53.224;6.554;2023-08-06T02:22:06;13.10;;;10.00;;
72895;SDS011;61036;53.224;6.554;2023-08-06T02:24:31;11.27;;;9.10;;
72895;SDS011;61036;53.224;6.554;2023-08-06T02:26:57;17.97;;;10.30;;
72895;SDS011;61036;53.224;6.554;2023-08-06T02:29:22;13.17;;;9.30;;
72895;SDS011;61036;53.224;6.554;2023-08-06T02:31:48;11.70;;;9.07;;
72895;SDS011;61036;53.224;6.554;2023-08-06T02:34:13;14.83;;;11.03;;
72895;SDS011;61036;53.224;6.554;2023-08-06T02:36:38;12.47;;;9.83;;
72895;SDS011;61036;53.224;6.554;2023-08-06T02:39:05;11.87;;;8.63;;
72895;SDS011;61036;53.224;6.554;2023-08-06T02:41:31;12.67;;;9.13;;
72895;SDS011;61036;53.224;6.554;2023-08-06T02:43:56;12.87;;;8.97;;
72895;SDS011;61036;53.224;6.554;2023-08-06T02:46:22;12.90;;;9.97;;
72895;SDS011;61036;53.224;6.554;2023-08-06T02:48:48;12.77;;;9.17;;
72895;SDS011;61036;53.224;6.554;2023-08-06T02:51:14;12.70;;;9.50;;
72895;SDS011;61036;53.224;6.554;2023-08-06T02:53:39;12.70;;;10.00;;
72895;SDS011;61036;53.224;6.554;2023-08-06T02:56:08;13.20;;;9.97;;
72895;SDS011;61036;53.224;6.554;2023-08-06T02:58:46;12.40;;;9.50;;
72895;SDS011;61036;53.224;6.554;2023-08-06T03:01:25;15.17;;;10.20;;
72895;SDS011;61036;53.224;6.554;2023-08-06T03:03:56;15.33;;;9.23;;
72895;SDS011;61036;53.224;6.554;2023-08-06T03:06:28;15.23;;;10.87;;
72895;SDS011;61036;53.224;6.554;2023-08-06T03:08:56;13.90;;;10.87;;
72895;SDS011;61036;53.224;6.554;2023-08-06T03:11:22;13.50;;;10.33;;
72895;SDS011;61036;53.224;6.554;2023-08-06T03:13:53;13.37;;;9.23;;
72895;SDS011;61036;53.224;6.554;2023-08-06T03:16:18;12.23;;;9.73;;
72895;SDS011;61036;53.224;6.554;2023-08-06T03:18:44;13.97;;;8.20;;
72895;SDS011;61036;53.224;6.554;2023-08-06T03:21:10;12.67;;;9.17;;
72895;SDS011;61036;53.224;6.554;2023-08-06T03:23:35;10.77;;;8.33;;
72895;SDS011;61036;53.224;6.554;2023-08-06T03:26:04;11.43;;;9.20;;
72895;SDS011;61036;53.224;6.554;2023-08-06T03:28:31;12.37;;;9.13;;
72895;SDS011;61036;53.224;6.554;2023-08-06T03:31:00;11.33;;;9.03;;
72895;SDS011;61036;53.224;6.554;2023-08-06T03:33:36;12.90;;;8.63;;
72895;SDS011;61036;53.224;6.554;2023-08-06T03:36:04;12.13;;;8.47;;
72895;SDS011;61036;53.224;6.554;2023-08-06T03:38:32;14.07;;;9.23;;
72895;SDS011;61036;53.224;6.554;2023-08-06T03:40:59;12.00;;;8.83;;
72895;SDS011;61036;53.224;6.554;2023-08-06T03:43:24;11.80;;;9.40;;
72895;SDS011;61036;53.224;6.554;2023-08-06T03:45:50;13.17;;;8.93;;
72895;SDS011;61036;53.224;6.554;2023-08-06T03:48:16;10.00;;;8.13;;
72895;SDS011;61036;53.224;6.554;2023-08-06T03:50:42;12.67;;;8.83;;
72895;SDS011;61036;53.224;6.554;2023-08-06T03:53:11;11.30;;;8.47;;
72895;SDS011;61036;53.224;6.554;2023-08-06T03:55:37;10.60;;;7.70;;
72895;SDS011;61036;53.224;6.554;2023-08-06T03:58:02;11.00;;;7.70;;
72895;SDS011;61036;53.224;6.554;2023-08-06T04:00:28;9.70;;;7.40;;
72895;SDS011;61036;53.224;6.554;2023-08-06T04:02:54;11.97;;;8.70;;
72895;SDS011;61036;53.224;6.554;2023-08-06T04:05:20;13.00;;;8.70;;
72895;SDS011;61036;53.224;6.554;2023-08-06T04:07:48;9.87;;;8.10;;
72895;SDS011;61036;53.224;6.554;2023-08-06T04:10:14;11.03;;;8.33;;
72895;SDS011;61036;53.224;6.554;2023-08-06T04:12:39;13.00;;;8.17;;
72895;SDS011;61036;53.224;6.554;2023-08-06T04:15:05;11.20;;;8.07;;
72895;SDS011;61036;53.224;6.554;2023-08-06T04:17:31;9.67;;;7.77;;
72895;SDS011;61036;53.224;6.554;2023-08-06T04:19:57;9.87;;;7.23;;
72895;SDS011;61036;53.224;6.554;2023-08-06T04:22:25;9.93;;;7.80;;
72895;SDS011;61036;53.224;6.554;2023-08-06T04:24:51;11.33;;;8.17;;
72895;SDS011;61036;53.224;6.554;2023-08-06T04:27:17;11.27;;;7.93;;
72895;SDS011;61036;53.224;6.554;2023-08-06T04:29:44;11.00;;;8.23;;
72895;SDS011;61036;53.224;6.554;2023-08-06T04:32:10;12.83;;;8.63;;
72895;SDS011;61036;53.224;6.554;2023-08-06T04:34:41;12.40;;;8.47;;
72895;SDS011;61036;53.224;6.554;2023-08-06T04:37:06;11.57;;;8.30;;
72895;SDS011;61036;53.224;6.554;2023-08-06T04:39:32;11.83;;;8.37;;
72895;SDS011;61036;53.224;6.554;2023-08-06T04:41:58;11.20;;;7.67;;
72895;SDS011;61036;53.224;6.554;2023-08-06T04:44:25;10.63;;;7.93;;
72895;SDS011;61036;53.224;6.554;2023-08-06T04:46:51;11.33;;;9.03;;
72895;SDS011;61036;53.224;6.554;2023-08-06T04:49:17;11.47;;;8.10;;
72895;SDS011;61036;53.224;6.554;2023-08-06T04:51:45;10.97;;;7.77;;
72895;SDS011;61036;53.224;6.554;2023-08-06T04:54:11;11.10;;;7.63;;
72895;SDS011;61036;53.224;6.554;2023-08-06T04:56:36;11.43;;;8.33;;
72895;SDS011;61036;53.224;6.554;2023-08-06T04:59:02;10.53;;;7.70;;
72895;SDS011;61036;53.224;6.554;2023-08-06T05:01:27;9.77;;;7.53;;
72895;SDS011;61036;53.224;6.554;2023-08-06T05:03:57;10.40;;;8.37;;
72895;SDS011;61036;53.224;6.554;2023-08-06T05:06:23;9.90;;;7.57;;
72895;SDS011;61036;53.224;6.554;2023-08-06T05:08:49;10.20;;;7.07;;
72895;SDS011;61036;53.224;6.554;2023-08-06T05:11:14;9.80;;;7.30;;
72895;SDS011;61036;53.224;6.554;2023-08-06T05:13:40;9.97;;;7.70;;
72895;SDS011;61036;53.224;6.554;2023-08-06T05:16:05;10.07;;;7.80;;
72895;SDS011;61036;53.224;6.554;2023-08-06T05:18:31;11.47;;;7.30;;
72895;SDS011;61036;53.224;6.554;2023-08-06T05:20:56;10.07;;;7.57;;
72895;SDS011;61036;53.224;6.554;2023-08-06T05:23:22;10.50;;;7.03;;
72895;SDS011;61036;53.224;6.554;2023-08-06T05:25:47;10.53;;;7.90;;
72895;SDS011;61036;53.224;6.554;2023-08-06T05:28:13;8.97;;;6.90;;
72895;SDS011;61036;53.224;6.554;2023-08-06T05:30:39;10.87;;;8.13;;
72895;SDS011;61036;53.224;6.554;2023-08-06T05:33:07;11.03;;;8.00;;
72895;SDS011;61036;53.224;6.554;2023-08-06T05:35:33;9.43;;;7.53;;
72895;SDS011;61036;53.224;6.554;2023-08-06T05:37:59;9.93;;;7.50;;
72895;SDS011;61036;53.224;6.554;2023-08-06T05:40:24;10.03;;;8.03;;
72895;SDS011;61036;53.224;6.554;2023-08-06T05:42:51;9.47;;;7.03;;
72895;SDS011;61036;53.224;6.554;2023-08-06T05:45:18;11.00;;;8.23;;
72895;SDS011;61036;53.224;6.554;2023-08-06T05:47:44;10.27;;;6.67;;
72895;SDS011;61036;53.224;6.554;2023-08-06T05:50:09;10.67;;;7.67;;
72895;SDS011;61036;53.224;6.554;2023-08-06T05:52:38;10.13;;;7.13;;
72895;SDS011;61036;53.224;6.554;2023-08-06T05:55:03;9.93;;;7.67;;
72895;SDS011;61036;53.224;6.554;2023-08-06T05:57:29;13.80;;;10.10;;
72895;SDS011;61036;53.224;6.554;2023-08-06T05:59:55;11.80;;;8.33;;
72895;SDS011;61036;53.224;6.554;2023-08-06T06:02:20;12.87;;;8.37;;
72895;SDS011;61036;53.224;6.554;2023-08-06T06:04:46;14.87;;;8.27;;
72895;SDS011;61036;53.224;6.554;2023-08-06T06:07:11;10.60;;;7.10;;
72895;SDS011;61036;53.224;6.554;2023-08-06T06:09:37;9.60;;;7.93;;
72895;SDS011;61036;53.224;6.554;2023-08-06T06:12:02;10.60;;;7.73;;
72895;SDS011;61036;53.224;6.554;2023-08-06T06:14:28;8.90;;;6.33;;
72895;SDS011;61036;53.224;6.554;2023-08-06T06:16:54;10.13;;;7.50;;
72895;SDS011;61036;53.224;6.554;2023-08-06T06:19:19;10.43;;;7.20;;
72895;SDS011;61036;53.224;6.554;2023-08-06T06:21:44;8.87;;;6.93;;
72895;SDS011;61036;53.224;6.554;2023-08-06T06:24:10;9.47;;;6.53;;
72895;SDS011;61036;53.224;6.554;2023-08-06T06:26:35;8.60;;;6.67;;
72895;SDS011;61036;53.224;6.554;2023-08-06T06:29:01;10.60;;;6.37;;
72895;SDS011;61036;53.224;6.554;2023-08-06T06:31:27;8.53;;;6.30;;
72895;SDS011;61036;53.224;6.554;2023-08-06T06:33:52;9.83;;;6.50;;
72895;SDS011;61036;53.224;6.554;2023-08-06T06:36:19;9.07;;;6.10;;
72895;SDS011;61036;53.224;6.554;2023-08-06T06:38:45;9.37;;;6.20;;
72895;SDS011;61036;53.224;6.554;2023-08-06T06:41:10;9.03;;;6.10;;
72895;SDS011;61036;53.224;6.554;2023-08-06T06:43:36;8.27;;;5.60;;
72895;SDS011;61036;53.224;6.554;2023-08-06T06:46:03;8.13;;;5.13;;
72895;SDS011;61036;53.224;6.554;2023-08-06T06:48:29;7.83;;;5.43;;
72895;SDS011;61036;53.224;6.554;2023-08-06T06:50:56;7.37;;;5.23;;
72895;SDS011;61036;53.224;6.554;2023-08-06T06:53:22;7.57;;;5.43;;
72895;SDS011;61036;53.224;6.554;2023-08-06T06:55:54;7.03;;;4.93;;
72895;SDS011;61036;53.224;6.554;2023-08-06T06:58:21;11.57;;;6.03;;
72895;SDS011;61036;53.224;6.554;2023-08-06T07:00:47;7.60;;;4.90;;
72895;SDS011;61036;53.224;6.554;2023-08-06T07:03:16;6.50;;;3.97;;
72895;SDS011;61036;53.224;6.554;2023-08-06T07:05:41;7.97;;;5.30;;
72895;SDS011;61036;53.224;6.554;2023-08-06T07:08:08;7.43;;;4.80;;
72895;SDS011;61036;53.224;6.554;2023-08-06T07:10:34;7.60;;;5.37;;
72895;SDS011;61036;53.224;6.554;2023-08-06T07:12:59;7.40;;;5.10;;
72895;SDS011;61036;53.224;6.554;2023-08-06T07:15:25;7.57;;;5.17;;
72895;SDS011;61036;53.224;6.554;2023-08-06T07:17:51;6.80;;;5.00;;
72895;SDS011;61036;53.224;6.554;2023-08-06T07:20:16;7.67;;;5.17;;
72895;SDS011;61036;53.224;6.554;2023-08-06T07:22:42;7.23;;;4.63;;
72895;SDS011;61036;53.224;6.554;2023-08-06T07:25:07;6.50;;;4.63;;
72895;SDS011;61036;53.224;6.554;2023-08-06T07:27:33;7.40;;;4.50;;
72895;SDS011;61036;53.224;6.554;2023-08-06T07:29:58;6.50;;;4.57;;
72895;SDS011;61036;53.224;6.554;2023-08-06T07:32:24;7.47;;;5.00;;
72895;SDS011;61036;53.224;6.554;2023-08-06T07:34:50;7.20;;;4.50;;
72895;SDS011;61036;53.224;6.554;2023-08-06T07:37:21;6.10;;;3.73;;
72895;SDS011;61036;53.224;6.554;2023-08-06T07:39:47;7.93;;;4.27;;
72895;SDS011;61036;53.224;6.554;2023-08-06T07:42:12;6.67;;;4.43;;
72895;SDS011;61036;53.224;6.554;2023-08-06T07:44:38;7.83;;;4.50;;
72895;SDS011;61036;53.224;6.554;2023-08-06T07:47:03;7.07;;;5.00;;
72895;SDS011;61036;53.224;6.554;2023-08-06T07:49:29;7.50;;;4.50;;
72895;SDS011;61036;53.224;6.554;2023-08-06T07:51:54;6.27;;;4.00;;
72895;SDS011;61036;53.224;6.554;2023-08-06T07:54:20;6.93;;;4.40;;
72895;SDS011;61036;53.224;6.554;2023-08-06T07:56:45;6.03;;;3.90;;
72895;SDS011;61036;53.224;6.554;2023-08-06T07:59:11;8.57;;;4.73;;
72895;SDS011;61036;53.224;6.554;2023-08-06T08:01:36;6.13;;;4.10;;
72895;SDS011;61036;53.224;6.554;2023-08-06T08:04:02;5.77;;;3.93;;
72895;SDS011;61036;53.224;6.554;2023-08-06T08:06:29;6.10;;;4.23;;
72895;SDS011;61036;53.224;6.554;2023-08-06T08:08:55;7.47;;;4.37;;
72895;SDS011;61036;53.224;6.554;2023-08-06T08:11:21;8.00;;;4.30;;
72895;SDS011;61036;53.224;6.554;2023-08-06T08:13:46;7.00;;;4.27;;
72895;SDS011;61036;53.224;6.554;2023-08-06T08:16:12;6.43;;;4.47;;
72895;SDS011;61036;53.224;6.554;2023-08-06T08:18:37;7.40;;;4.57;;
72895;SDS011;61036;53.224;6.554;2023-08-06T08:21:03;7.47;;;3.83;;
72895;SDS011;61036;53.224;6.554;2023-08-06T08:23:28;6.40;;;3.80;;
72895;SDS011;61036;53.224;6.554;2023-08-06T08:25:54;5.67;;;3.63;;
72895;SDS011;61036;53.224;6.554;2023-08-06T08:28:19;5.93;;;3.50;;
72895;SDS011;61036;53.224;6.554;2023-08-06T08:30:45;5.40;;;3.67;;
72895;SDS011;61036;53.224;6.554;2023-08-06T08:33:10;5.67;;;3.30;;
72895;SDS011;61036;53.224;6.554;2023-08-06T08:35:36;5.67;;;3.20;;
72895;SDS011;61036;53.224;6.554;2023-08-06T08:38:02;6.13;;;3.50;;
72895;SDS011;61036;53.224;6.554;2023-08-06T08:40:32;5.20;;;2.90;;
72895;SDS011;61036;53.224;6.554;2023-08-06T08:43:01;5.37;;;3.43;;
72895;SDS011;61036;53.224;6.554;2023-08-06T08:45:28;5.10;;;3.20;;
72895;SDS011;61036;53.224;6.554;2023-08-06T08:47:55;4.37;;;2.77;;
72895;SDS011;61036;53.224;6.554;2023-08-06T08:50:21;5.40;;;3.30;;
72895;SDS011;61036;53.224;6.554;2023-08-06T08:52:46;5.77;;;3.00;;
72895;SDS011;61036;53.224;6.554;2023-08-06T08:55:14;4.53;;;2.80;;
72895;SDS011;61036;53.224;6.554;2023-08-06T08:57:40;3.97;;;2.40;;
72895;SDS011;61036;53.224;6.554;2023-08-06T09:00:06;4.83;;;2.43;;
72895;SDS011;61036;53.224;6.554;2023-08-06T09:02:32;3.70;;;2.33;;
72895;SDS011;61036;53.224;6.554;2023-08-06T09:04:59;6.93;;;3.27;;
72895;SDS011;61036;53.224;6.554;2023-08-06T09:07:29;5.70;;;2.90;;
72895;SDS011;61036;53.224;6.554;2023-08-06T09:10:17;4.67;;;2.97;;
72895;SDS011;61036;53.224;6.554;2023-08-06T09:12:48;5.00;;;2.50;;
72895;SDS011;61036;53.224;6.554;2023-08-06T09:15:15;5.03;;;3.00;;
72895;SDS011;61036;53.224;6.554;2023-08-06T09:17:41;5.03;;;2.73;;
72895;SDS011;61036;53.224;6.554;2023-08-06T09:20:13;5.23;;;2.37;;
72895;SDS011;61036;53.224;6.554;2023-08-06T09:22:39;5.60;;;2.70;;
72895;SDS011;61036;53.224;6.554;2023-08-06T09:25:06;4.73;;;2.23;;
72895;SDS011;61036;53.224;6.554;2023-08-06T09:27:38;4.23;;;2.23;;
72895;SDS011;61036;53.224;6.554;2023-08-06T09:30:05;4.73;;;2.17;;
72895;SDS011;61036;53.224;6.554;2023-08-06T09:32:48;3.70;;;2.17;;
72895;SDS011;61036;53.224;6.554;2023-08-06T09:35:17;3.87;;;2.03;;
72895;SDS011;61036;53.224;6.554;2023-08-06T09:37:43;3.53;;;1.90;;
72895;SDS011;61036;53.224;6.554;2023-08-06T09:40:29;5.07;;;2.40;;
72895;SDS011;61036;53.224;6.554;2023-08-06T09:42:57;3.70;;;2.00;;
72895;SDS011;61036;53.224;6.554;2023-08-06T09:45:28;4.80;;;2.40;;
72895;SDS011;61036;53.224;6.554;2023-08-06T09:47:57;5.03;;;2.53;;
72895;SDS011;61036;53.224;6.554;2023-08-06T09:50:23;5.50;;;2.70;;
72895;SDS011;61036;53.224;6.554;2023-08-06T09:52:54;5.27;;;2.43;;
72895;SDS011;61036;53.224;6.554;2023-08-06T09:55:21;4.37;;;2.33;;
72895;SDS011;61036;53.224;6.554;2023-08-06T09:57:47;3.20;;;2.00;;
72895;SDS011;61036;53.224;6.554;2023-08-06T10:00:12;3.40;;;2.03;;
72895;SDS011;61036;53.224;6.554;2023-08-06T10:02:39;3.53;;;2.10;;
72895;SDS011;61036;53.224;6.554;2023-08-06T10:05:06;3.47;;;2.23;;
72895;SDS011;61036;53.224;6.554;2023-08-06T10:07:33;5.03;;;2.20;;
72895;SDS011;61036;53.224;6.554;2023-08-06T10:09:59;3.33;;;2.00;;
72895;SDS011;61036;53.224;6.554;2023-08-06T10:12:25;3.93;;;2.27;;
72895;SDS011;61036;53.224;6.554;2023-08-06T10:14:54;3.50;;;2.30;;
72895;SDS011;61036;53.224;6.554;2023-08-06T10:17:22;8.37;;;2.73;;
72895;SDS011;61036;53.224;6.554;2023-08-06T10:19:49;3.43;;;2.20;;
72895;SDS011;61036;53.224;6.554;2023-08-06T10:22:17;5.23;;;2.80;;
72895;SDS011;61036;53.224;6.554;2023-08-06T10:30:23;4.50;;;2.40;;
72895;SDS011;61036;53.224;6.554;2023-08-06T10:32:50;3.70;;;2.30;;
72895;SDS011;61036;53.224;6.554;2023-08-06T10:38:21;4.00;;;2.20;;
72895;SDS011;61036;53.224;6.554;2023-08-06T10:41:00;5.33;;;2.70;;
72895;SDS011;61036;53.224;6.554;2023-08-06T10:45:52;4.63;;;2.30;;
72895;SDS011;61036;53.224;6.554;2023-08-06T10:48:34;3.97;;;2.10;;
72895;SDS011;61036;53.224;6.554;2023-08-06T10:51:00;4.63;;;2.37;;
72895;SDS011;61036;53.224;6.554;2023-08-06T10:53:26;5.17;;;2.30;;
72895;SDS011;61036;53.224;6.554;2023-08-06T10:55:52;4.30;;;2.20;;
72895;SDS011;61036;53.224;6.554;2023-08-06T10:58:17;3.90;;;2.20;;
72895;SDS011;61036;53.224;6.554;2023-08-06T11:00:43;4.03;;;2.10;;
72895;SDS011;61036;53.224;6.554;2023-08-06T11:03:08;3.63;;;2.07;;
72895;SDS011;61036;53.224;6.554;2023-08-06T11:05:34;3.80;;;2.03;;
72895;SDS011;61036;53.224;6.554;2023-08-06T11:08:01;8.60;;;2.53;;
72895;SDS011;61036;53.224;6.554;2023-08-06T11:10:26;4.07;;;2.03;;
72895;SDS011;61036;53.224;6.554;2023-08-06T11:12:52;2.93;;;1.80;;
72895;SDS011;61036;53.224;6.554;2023-08-06T11:15:19;4.17;;;2.03;;
72895;SDS011;61036;53.224;6.554;2023-08-06T11:17:48;3.20;;;1.90;;
72895;SDS011;61036;53.224;6.554;2023-08-06T11:20:15;2.90;;;1.80;;
72895;SDS011;61036;53.224;6.554;2023-08-06T11:22:40;4.13;;;1.80;;
72895;SDS011;61036;53.224;6.554;2023-08-06T11:25:06;4.43;;;2.13;;
72895;SDS011;61036;53.224;6.554;2023-08-06T11:27:32;4.10;;;1.97;;
72895;SDS011;61036;53.224;6.554;2023-08-06T11:29:58;4.50;;;2.00;;
72895;SDS011;61036;53.224;6.554;2023-08-06T11:32:24;3.67;;;1.77;;
72895;SDS011;61036;53.224;6.554;2023-08-06T11:34:49;4.07;;;2.00;;
72895;SDS011;61036;53.224;6.554;2023-08-06T11:37:15;3.70;;;1.97;;
72895;SDS011;61036;53.224;6.554;2023-08-06T11:39:46;4.97;;;2.30;;
72895;SDS011;61036;53.224;6.554;2023-08-06T11:42:15;4.00;;;1.93;;
72895;SDS011;61036;53.224;6.554;2023-08-06T11:44:41;3.23;;;1.80;;
72895;SDS011;61036;53.224;6.554;2023-08-06T11:47:14;4.37;;;1.97;;
72895;SDS011;61036;53.224;6.554;2023-08-06T11:49:47;4.43;;;2.07;;
72895;SDS011;61036;53.224;6.554;2023-08-06T11:52:21;3.83;;;2.20;;
72895;SDS011;61036;53.224;6.554;2023-08-06T11:55:09;4.03;;;2.07;;
72895;SDS011;61036;53.224;6.554;2023-08-06T11:57:37;3.57;;;1.90;;
72895;SDS011;61036;53.224;6.554;2023-08-06T12:00:05;4.00;;;2.10;;
72895;SDS011;61036;53.224;6.554;2023-08-06T12:02:42;3.70;;;1.80;;
72895;SDS011;61036;53.224;6.554;2023-08-06T12:07:38;3.90;;;2.40;;
72895;SDS011;61036;53.224;6.554;2023-08-06T12:10:05;4.17;;;2.10;;
72895;SDS011;61036;53.224;6.554;2023-08-06T12:12:31;4.60;;;2.40;;
72895;SDS011;61036;53.224;6.554;2023-08-06T12:14:56;4.50;;;2.30;;
72895;SDS011;61036;53.224;6.554;2023-08-06T12:17:23;4.63;;;2.17;;
72895;SDS011;61036;53.224;6.554;2023-08-06T12:19:49;4.50;;;2.20;;
72895;SDS011;61036;53.224;6.554;2023-08-06T12:22:15;4.53;;;2.00;;
72895;SDS011;61036;53.224;6.554;2023-08-06T12:24:41;4.90;;;2.20;;
72895;SDS011;61036;53.224;6.554;2023-08-06T12:27:07;3.77;;;1.90;;
72895;SDS011;61036;53.224;6.554;2023-08-06T12:29:33;5.23;;;2.37;;
72895;SDS011;61036;53.224;6.554;2023-08-06T12:31:58;6.13;;;2.20;;
72895;SDS011;61036;53.224;6.554;2023-08-06T12:34:24;3.33;;;2.10;;
72895;SDS011;61036;53.224;6.554;2023-08-06T12:36:49;3.70;;;1.83;;
72895;SDS011;61036;53.224;6.554;2023-08-06T12:39:15;6.13;;;2.30;;
72895;SDS011;61036;53.224;6.554;2023-08-06T12:41:40;4.10;;;2.10;;
72895;SDS011;61036;53.224;6.554;2023-08-06T12:44:08;4.10;;;1.90;;
72895;SDS011;61036;53.224;6.554;2023-08-06T12:46:34;4.30;;;1.83;;
72895;SDS011;61036;53.224;6.554;2023-08-06T12:48:59;3.90;;;2.10;;
72895;SDS011;61036;53.224;6.554;2023-08-06T12:51:25;3.33;;;1.60;;
72895;SDS011;61036;53.224;6.554;2023-08-06T12:53:50;3.60;;;1.80;;
72895;SDS011;61036;53.224;6.554;2023-08-06T12:56:16;4.27;;;2.17;;
72895;SDS011;61036;53.224;6.554;2023-08-06T12:58:41;3.57;;;1.77;;
72895;SDS011;61036;53.224;6.554;2023-08-06T13:01:07;3.70;;;2.00;;
72895;SDS011;61036;53.224;6.554;2023-08-06T13:03:33;3.83;;;1.83;;
72895;SDS011;61036;53.224;6.554;2023-08-06T13:05:58;3.90;;;2.10;;
72895;SDS011;61036;53.224;6.554;2023-08-06T13:08:27;5.17;;;2.13;;
72895;SDS011;61036;53.224;6.554;2023-08-06T13:10:52;4.07;;;2.10;;
72895;SDS011;61036;53.224;6.554;2023-08-06T13:13:18;3.30;;;1.67;;
72895;SDS011;61036;53.224;6.554;2023-08-06T13:15:43;3.40;;;1.90;;
72895;SDS011;61036;53.224;6.554;2023-08-06T13:18:09;3.07;;;1.93;;
72895;SDS011;61036;53.224;6.554;2023-08-06T13:20:37;4.10;;;2.00;;
72895;SDS011;61036;53.224;6.554;2023-08-06T13:23:05;4.27;;;1.80;;
72895;SDS011;61036;53.224;6.554;2023-08-06T13:25:31;5.33;;;2.20;;
72895;SDS011;61036;53.224;6.554;2023-08-06T13:28:01;5.23;;;2.20;;
72895;SDS011;61036;53.224;6.554;2023-08-06T13:30:27;3.63;;;1.97;;
72895;SDS011;61036;53.224;6.554;2023-08-06T13:32:53;4.00;;;1.80;;
72895;SDS011;61036;53.224;6.554;2023-08-06T13:35:20;3.50;;;2.10;;
72895;SDS011;61036;53.224;6.554;2023-08-06T13:37:46;4.17;;;2.20;;
72895;SDS011;61036;53.224;6.554;2023-08-06T13:40:13;3.57;;;2.07;;
72895;SDS011;61036;53.224;6.554;2023-08-06T13:42:38;4.27;;;1.83;;
72895;SDS011;61036;53.224;6.554;2023-08-06T13:45:05;3.17;;;1.90;;
72895;SDS011;61036;53.224;6.554;2023-08-06T13:47:31;4.13;;;2.03;;
72895;SDS011;61036;53.224;6.554;2023-08-06T13:49:57;4.13;;;2.00;;
72895;SDS011;61036;53.224;6.554;2023-08-06T13:52:25;3.03;;;1.90;;
72895;SDS011;61036;53.224;6.554;2023-08-06T13:54:51;3.77;;;1.97;;
72895;SDS011;61036;53.224;6.554;2023-08-06T13:57:17;3.57;;;2.00;;
72895;SDS011;61036;53.224;6.554;2023-08-06T13:59:42;4.00;;;1.80;;
72895;SDS011;61036;53.224;6.554;2023-08-06T14:02:11;4.27;;;2.00;;
72895;SDS011;61036;53.224;6.554;2023-08-06T14:04:37;3.67;;;1.90;;
72895;SDS011;61036;53.224;6.554;2023-08-06T14:07:03;3.43;;;1.83;;
72895;SDS011;61036;53.224;6.554;2023-08-06T14:09:29;4.27;;;2.10;;
72895;SDS011;61036;53.224;6.554;2023-08-06T14:11:55;3.37;;;1.97;;
72895;SDS011;61036;53.224;6.554;2023-08-06T14:14:20;3.87;;;1.90;;
72895;SDS011;61036;53.224;6.554;2023-08-06T14:16:51;4.57;;;1.80;;
72895;SDS011;61036;53.224;6.554;2023-08-06T14:19:17;3.30;;;1.70;;
72895;SDS011;61036;53.224;6.554;2023-08-06T14:21:42;2.80;;;1.60;;
72895;SDS011;61036;53.224;6.554;2023-08-06T14:24:08;3.27;;;1.83;;
72895;SDS011;61036;53.224;6.554;2023-08-06T14:26:33;2.87;;;1.57;;
72895;SDS011;61036;53.224;6.554;2023-08-06T14:29:00;4.67;;;2.00;;
72895;SDS011;61036;53.224;6.554;2023-08-06T14:31:26;2.33;;;1.40;;
72895;SDS011;61036;53.224;6.554;2023-08-06T14:33:51;3.17;;;1.67;;
72895;SDS011;61036;53.224;6.554;2023-08-06T14:36:17;3.43;;;1.80;;
72895;SDS011;61036;53.224;6.554;2023-08-06T14:38:42;4.07;;;2.10;;
72895;SDS011;61036;53.224;6.554;2023-08-06T14:41:08;3.53;;;1.90;;
72895;SDS011;61036;53.224;6.554;2023-08-06T14:43:33;4.20;;;1.70;;
72895;SDS011;61036;53.224;6.554;2023-08-06T14:45:59;3.03;;;1.53;;
72895;SDS011;61036;53.224;6.554;2023-08-06T14:48:24;3.60;;;1.53;;
72895;SDS011;61036;53.224;6.554;2023-08-06T14:50:50;3.43;;;1.50;;
72895;SDS011;61036;53.224;6.554;2023-08-06T14:53:15;3.03;;;1.60;;
72895;SDS011;61036;53.224;6.554;2023-08-06T14:55:41;2.60;;;1.67;;
72895;SDS011;61036;53.224;6.554;2023-08-06T14:58:07;4.17;;;1.70;;
72895;SDS011;61036;53.224;6.554;2023-08-06T15:00:32;4.30;;;1.53;;
72895;SDS011;61036;53.224;6.554;2023-08-06T15:02:58;3.57;;;1.70;;